sensor_id;sensor_type;location;lat;lon;timestamp;P1;durP1;ratioP1;P2;durP2;ratioP2
75050;SDS011;63628;47.656;11.310;2023-07-20T00:02:04;3.40;;;3.10;;
75050;SDS011;63628;47.656;11.310;2023-07-20T00:04:32;3.72;;;3.13;;
75050;SDS011;63628;47.656;11.310;2023-07-20T00:06:59;4.00;;;3.00;;
75050;SDS011;63628;47.656;11.310;2023-07-20T00:09:27;3.35;;;3.05;;
75050;SDS011;63628;47.656;11.310;2023-07-20T00:11:55;5.10;;;3.42;;
75050;SDS011;63628;47.656;11.310;2023-07-20T00:14:22;4.10;;;3.30;;
75050;SDS011;63628;47.656;11.310;2023-07-20T00:16:49;5.65;;;3.55;;
75050;SDS011;63628;47.656;11.310;2023-07-20T00:19:22;3.60;;;3.00;;
75050;SDS011;63628;47.656;11.310;2023-07-20T00:21:49;3.55;;;3.25;;
75050;SDS011;63628;47.656;11.310;2023-07-20T00:24:16;3.47;;;3.13;;
75050;SDS011;63628;47.656;11.310;2023-07-20T00:26:43;3.83;;;3.13;;
75050;SDS011;63628;47.656;11.310;2023-07-20T00:29:11;3.83;;;3.10;;
75050;SDS011;63628;47.656;11.310;2023-07-20T00:31:38;3.13;;;2.83;;
75050;SDS011;63628;47.656;11.310;2023-07-20T00:34:05;3.45;;;2.95;;
75050;SDS011;63628;47.656;11.310;2023-07-20T00:36:32;3.53;;;3.20;;
75050;SDS011;63628;47.656;11.310;2023-07-20T00:38:59;4.03;;;3.10;;
75050;SDS011;63628;47.656;11.310;2023-07-20T00:41:25;4.05;;;3.35;;
75050;SDS011;63628;47.656;11.310;2023-07-20T00:43:55;3.63;;;3.20;;
75050;SDS011;63628;47.656;11.310;2023-07-20T00:46:24;3.67;;;3.00;;
75050;SDS011;63628;47.656;11.310;2023-07-20T00:48:52;3.50;;;3.20;;
75050;SDS011;63628;47.656;11.310;2023-07-20T00:51:19;3.20;;;2.90;;
75050;SDS011;63628;47.656;11.310;2023-07-20T00:53:47;3.55;;;3.25;;
75050;SDS011;63628;47.656;11.310;2023-07-20T00:56:14;4.25;;;3.55;;
75050;SDS011;63628;47.656;11.310;2023-07-20T00:58:41;3.65;;;3.20;;
75050;SDS011;63628;47.656;11.310;2023-07-20T01:01:08;3.42;;;2.90;;
75050;SDS011;63628;47.656;11.310;2023-07-20T01:03:37;3.65;;;3.00;;
75050;SDS011;63628;47.656;11.310;2023-07-20T01:06:11;2.83;;;2.53;;
75050;SDS011;63628;47.656;11.310;2023-07-20T01:08:47;3.42;;;3.00;;
75050;SDS011;63628;47.656;11.310;2023-07-20T01:11:23;3.15;;;2.85;;
75050;SDS011;63628;47.656;11.310;2023-07-20T01:13:58;3.95;;;2.88;;
75050;SDS011;63628;47.656;11.310;2023-07-20T01:16:26;4.05;;;3.05;;
75050;SDS011;63628;47.656;11.310;2023-07-20T01:18:54;4.05;;;2.53;;
75050;SDS011;63628;47.656;11.310;2023-07-20T01:21:24;4.03;;;2.88;;
75050;SDS011;63628;47.656;11.310;2023-07-20T01:24:02;5.22;;;3.08;;
75050;SDS011;63628;47.656;11.310;2023-07-20T01:26:46;3.47;;;3.05;;
75050;SDS011;63628;47.656;11.310;2023-07-20T01:29:35;3.40;;;2.92;;
75050;SDS011;63628;47.656;11.310;2023-07-20T01:32:24;3.55;;;3.25;;
75050;SDS011;63628;47.656;11.310;2023-07-20T01:34:52;3.33;;;3.00;;
75050;SDS011;63628;47.656;11.310;2023-07-20T01:37:20;4.55;;;3.17;;
75050;SDS011;63628;47.656;11.310;2023-07-20T01:39:52;7.90;;;3.05;;
75050;SDS011;63628;47.656;11.310;2023-07-20T01:42:21;3.33;;;2.60;;
75050;SDS011;63628;47.656;11.310;2023-07-20T01:44:50;4.78;;;3.30;;
75050;SDS011;63628;47.656;11.310;2023-07-20T01:47:17;3.47;;;2.63;;
75050;SDS011;63628;47.656;11.310;2023-07-20T01:49:45;4.40;;;2.92;;
75050;SDS011;63628;47.656;11.310;2023-07-20T01:52:12;2.97;;;2.67;;
75050;SDS011;63628;47.656;11.310;2023-07-20T01:54:38;2.92;;;2.58;;
75050;SDS011;63628;47.656;11.310;2023-07-20T01:57:05;6.32;;;2.90;;
75050;SDS011;63628;47.656;11.310;2023-07-20T01:59:32;2.83;;;2.60;;
75050;SDS011;63628;47.656;11.310;2023-07-20T02:01:58;3.13;;;2.83;;
75050;SDS011;63628;47.656;11.310;2023-07-20T02:04:25;6.53;;;3.17;;
75050;SDS011;63628;47.656;11.310;2023-07-20T02:06:53;3.30;;;2.90;;
75050;SDS011;63628;47.656;11.310;2023-07-20T02:09:20;3.22;;;2.92;;
75050;SDS011;63628;47.656;11.310;2023-07-20T02:11:46;3.38;;;2.90;;
75050;SDS011;63628;47.656;11.310;2023-07-20T02:14:13;3.30;;;2.70;;
75050;SDS011;63628;47.656;11.310;2023-07-20T02:16:40;2.88;;;2.60;;
75050;SDS011;63628;47.656;11.310;2023-07-20T02:19:07;3.10;;;2.80;;
75050;SDS011;63628;47.656;11.310;2023-07-20T02:21:33;3.15;;;2.45;;
75050;SDS011;63628;47.656;11.310;2023-07-20T02:24:01;2.97;;;2.65;;
75050;SDS011;63628;47.656;11.310;2023-07-20T02:26:28;3.15;;;2.85;;
75050;SDS011;63628;47.656;11.310;2023-07-20T02:28:55;3.50;;;2.92;;
75050;SDS011;63628;47.656;11.310;2023-07-20T02:31:21;3.20;;;2.90;;
75050;SDS011;63628;47.656;11.310;2023-07-20T02:33:48;3.78;;;2.88;;
75050;SDS011;63628;47.656;11.310;2023-07-20T02:36:15;3.55;;;3.00;;
75050;SDS011;63628;47.656;11.310;2023-07-20T02:38:43;3.10;;;2.63;;
75050;SDS011;63628;47.656;11.310;2023-07-20T02:41:11;2.70;;;2.50;;
75050;SDS011;63628;47.656;11.310;2023-07-20T02:46:05;3.20;;;2.65;;
75050;SDS011;63628;47.656;11.310;2023-07-20T02:48:32;3.10;;;2.75;;
75050;SDS011;63628;47.656;11.310;2023-07-20T02:50:58;2.60;;;2.40;;
75050;SDS011;63628;47.656;11.310;2023-07-20T02:53:25;3.28;;;2.72;;
75050;SDS011;63628;47.656;11.310;2023-07-20T02:55:52;3.75;;;2.72;;
75050;SDS011;63628;47.656;11.310;2023-07-20T02:58:21;3.53;;;2.90;;
75050;SDS011;63628;47.656;11.310;2023-07-20T03:00:48;2.67;;;2.47;;
75050;SDS011;63628;47.656;11.310;2023-07-20T03:03:14;2.97;;;2.65;;
75050;SDS011;63628;47.656;11.310;2023-07-20T03:05:41;3.22;;;2.55;;
75050;SDS011;63628;47.656;11.310;2023-07-20T03:08:08;3.00;;;2.80;;
75050;SDS011;63628;47.656;11.310;2023-07-20T03:10:38;2.97;;;2.53;;
75050;SDS011;63628;47.656;11.310;2023-07-20T03:13:05;3.05;;;2.50;;
75050;SDS011;63628;47.656;11.310;2023-07-20T03:15:34;3.13;;;2.72;;
75050;SDS011;63628;47.656;11.310;2023-07-20T03:18:01;2.60;;;2.30;;
75050;SDS011;63628;47.656;11.310;2023-07-20T03:20:27;4.45;;;2.63;;
75050;SDS011;63628;47.656;11.310;2023-07-20T03:22:54;5.75;;;2.38;;
75050;SDS011;63628;47.656;11.310;2023-07-20T03:25:21;2.63;;;2.25;;
75050;SDS011;63628;47.656;11.310;2023-07-20T03:27:48;3.25;;;2.47;;
75050;SDS011;63628;47.656;11.310;2023-07-20T03:30:15;2.63;;;2.30;;
75050;SDS011;63628;47.656;11.310;2023-07-20T03:32:43;3.05;;;2.75;;
75050;SDS011;63628;47.656;11.310;2023-07-20T03:35:10;2.67;;;2.42;;
75050;SDS011;63628;47.656;11.310;2023-07-20T03:37:36;3.10;;;2.58;;
75050;SDS011;63628;47.656;11.310;2023-07-20T03:40:05;3.50;;;2.70;;
75050;SDS011;63628;47.656;11.310;2023-07-20T03:42:33;3.85;;;2.63;;
75050;SDS011;63628;47.656;11.310;2023-07-20T03:45:00;4.25;;;2.60;;
75050;SDS011;63628;47.656;11.310;2023-07-20T03:47:27;3.17;;;2.80;;
75050;SDS011;63628;47.656;11.310;2023-07-20T03:49:55;2.50;;;2.30;;
75050;SDS011;63628;47.656;11.310;2023-07-20T03:52:21;2.38;;;2.17;;
75050;SDS011;63628;47.656;11.310;2023-07-20T03:54:48;3.80;;;2.22;;
75050;SDS011;63628;47.656;11.310;2023-07-20T03:57:15;2.83;;;2.60;;
75050;SDS011;63628;47.656;11.310;2023-07-20T03:59:44;6.80;;;2.22;;
75050;SDS011;63628;47.656;11.310;2023-07-20T04:02:11;4.60;;;2.10;;
75050;SDS011;63628;47.656;11.310;2023-07-20T04:04:38;4.90;;;2.35;;
75050;SDS011;63628;47.656;11.310;2023-07-20T04:07:06;3.67;;;2.60;;
75050;SDS011;63628;47.656;11.310;2023-07-20T04:09:33;4.40;;;2.67;;
75050;SDS011;63628;47.656;11.310;2023-07-20T04:12:00;2.70;;;2.30;;
75050;SDS011;63628;47.656;11.310;2023-07-20T04:14:27;2.90;;;2.30;;
75050;SDS011;63628;47.656;11.310;2023-07-20T04:16:53;3.22;;;2.72;;
75050;SDS011;63628;47.656;11.310;2023-07-20T04:19:20;2.45;;;2.25;;
75050;SDS011;63628;47.656;11.310;2023-07-20T04:21:47;2.58;;;2.38;;
75050;SDS011;63628;47.656;11.310;2023-07-20T04:24:15;3.17;;;2.67;;
75050;SDS011;63628;47.656;11.310;2023-07-20T04:26:41;4.35;;;2.30;;
75050;SDS011;63628;47.656;11.310;2023-07-20T04:29:08;3.17;;;2.70;;
75050;SDS011;63628;47.656;11.310;2023-07-20T04:31:35;5.93;;;2.58;;
75050;SDS011;63628;47.656;11.310;2023-07-20T04:34:02;3.38;;;2.03;;
75050;SDS011;63628;47.656;11.310;2023-07-20T04:36:29;3.58;;;2.70;;
75050;SDS011;63628;47.656;11.310;2023-07-20T04:38:55;4.10;;;2.22;;
75050;SDS011;63628;47.656;11.310;2023-07-20T04:41:23;3.25;;;1.92;;
75050;SDS011;63628;47.656;11.310;2023-07-20T04:43:51;1.85;;;1.58;;
75050;SDS011;63628;47.656;11.310;2023-07-20T04:46:18;5.05;;;2.20;;
75050;SDS011;63628;47.656;11.310;2023-07-20T04:48:45;4.57;;;1.80;;
75050;SDS011;63628;47.656;11.310;2023-07-20T04:51:12;2.20;;;1.60;;
75050;SDS011;63628;47.656;11.310;2023-07-20T04:53:38;2.60;;;2.08;;
75050;SDS011;63628;47.656;11.310;2023-07-20T04:56:05;2.50;;;2.20;;
75050;SDS011;63628;47.656;11.310;2023-07-20T04:58:33;2.42;;;2.03;;
75050;SDS011;63628;47.656;11.310;2023-07-20T05:01:00;3.15;;;2.55;;
75050;SDS011;63628;47.656;11.310;2023-07-20T05:03:26;3.05;;;2.20;;
75050;SDS011;63628;47.656;11.310;2023-07-20T05:05:53;2.78;;;2.15;;
75050;SDS011;63628;47.656;11.310;2023-07-20T05:08:20;2.78;;;2.25;;
75050;SDS011;63628;47.656;11.310;2023-07-20T05:10:48;2.50;;;2.00;;
75050;SDS011;63628;47.656;11.310;2023-07-20T05:13:15;2.42;;;2.17;;
75050;SDS011;63628;47.656;11.310;2023-07-20T05:15:43;2.58;;;1.95;;
75050;SDS011;63628;47.656;11.310;2023-07-20T05:18:09;5.05;;;2.20;;
75050;SDS011;63628;47.656;11.310;2023-07-20T05:20:36;3.75;;;2.58;;
75050;SDS011;63628;47.656;11.310;2023-07-20T05:23:03;2.28;;;1.60;;
75050;SDS011;63628;47.656;11.310;2023-07-20T05:25:30;2.90;;;1.42;;
75050;SDS011;63628;47.656;11.310;2023-07-20T05:27:57;2.30;;;1.85;;
75050;SDS011;63628;47.656;11.310;2023-07-20T05:30:24;3.92;;;1.85;;
75050;SDS011;63628;47.656;11.310;2023-07-20T05:32:52;2.83;;;1.38;;
75050;SDS011;63628;47.656;11.310;2023-07-20T05:35:21;3.60;;;2.10;;
75050;SDS011;63628;47.656;11.310;2023-07-20T05:37:48;2.20;;;2.00;;
75050;SDS011;63628;47.656;11.310;2023-07-20T05:40:15;1.75;;;1.55;;
75050;SDS011;63628;47.656;11.310;2023-07-20T05:42:45;2.88;;;2.10;;
75050;SDS011;63628;47.656;11.310;2023-07-20T05:45:12;2.45;;;2.13;;
75050;SDS011;63628;47.656;11.310;2023-07-20T05:47:39;4.57;;;1.83;;
75050;SDS011;63628;47.656;11.310;2023-07-20T05:50:08;2.45;;;2.00;;
75050;SDS011;63628;47.656;11.310;2023-07-20T05:55:02;2.70;;;1.65;;
75050;SDS011;63628;47.656;11.310;2023-07-20T05:57:32;2.70;;;1.73;;
75050;SDS011;63628;47.656;11.310;2023-07-20T05:59:59;5.35;;;2.15;;
75050;SDS011;63628;47.656;11.310;2023-07-20T06:02:26;2.50;;;1.95;;
75050;SDS011;63628;47.656;11.310;2023-07-20T06:04:52;2.92;;;1.73;;
75050;SDS011;63628;47.656;11.310;2023-07-20T06:07:22;3.40;;;1.90;;
75050;SDS011;63628;47.656;11.310;2023-07-20T06:09:48;2.17;;;1.60;;
75050;SDS011;63628;47.656;11.310;2023-07-20T06:12:15;4.20;;;2.03;;
75050;SDS011;63628;47.656;11.310;2023-07-20T06:14:42;2.72;;;1.75;;
75050;SDS011;63628;47.656;11.310;2023-07-20T06:17:08;3.25;;;1.75;;
75050;SDS011;63628;47.656;11.310;2023-07-20T06:19:36;2.35;;;1.48;;
75050;SDS011;63628;47.656;11.310;2023-07-20T06:22:03;2.90;;;2.08;;
75050;SDS011;63628;47.656;11.310;2023-07-20T06:24:32;2.85;;;1.70;;
75050;SDS011;63628;47.656;11.310;2023-07-20T06:26:58;2.72;;;1.75;;
75050;SDS011;63628;47.656;11.310;2023-07-20T06:29:25;3.47;;;1.63;;
75050;SDS011;63628;47.656;11.310;2023-07-20T06:31:52;3.00;;;1.70;;
75050;SDS011;63628;47.656;11.310;2023-07-20T06:34:19;3.78;;;1.60;;
75050;SDS011;63628;47.656;11.310;2023-07-20T06:36:49;4.70;;;1.70;;
75050;SDS011;63628;47.656;11.310;2023-07-20T06:39:15;3.35;;;1.75;;
75050;SDS011;63628;47.656;11.310;2023-07-20T06:41:46;2.40;;;1.63;;
75050;SDS011;63628;47.656;11.310;2023-07-20T06:44:13;2.35;;;1.52;;
75050;SDS011;63628;47.656;11.310;2023-07-20T06:46:40;4.25;;;2.10;;
75050;SDS011;63628;47.656;11.310;2023-07-20T06:49:07;3.10;;;2.05;;
75050;SDS011;63628;47.656;11.310;2023-07-20T06:51:37;3.22;;;1.80;;
75050;SDS011;63628;47.656;11.310;2023-07-20T06:54:04;3.50;;;1.63;;
75050;SDS011;63628;47.656;11.310;2023-07-20T06:56:31;1.80;;;1.40;;
75050;SDS011;63628;47.656;11.310;2023-07-20T06:59:01;2.50;;;1.88;;
75050;SDS011;63628;47.656;11.310;2023-07-20T07:01:29;2.92;;;1.83;;
75050;SDS011;63628;47.656;11.310;2023-07-20T07:03:55;3.33;;;2.20;;
75050;SDS011;63628;47.656;11.310;2023-07-20T07:06:23;2.50;;;1.70;;
75050;SDS011;63628;47.656;11.310;2023-07-20T07:08:50;4.22;;;1.80;;
75050;SDS011;63628;47.656;11.310;2023-07-20T07:11:18;2.80;;;1.70;;
75050;SDS011;63628;47.656;11.310;2023-07-20T07:13:44;3.03;;;1.80;;
75050;SDS011;63628;47.656;11.310;2023-07-20T07:16:14;2.55;;;1.60;;
75050;SDS011;63628;47.656;11.310;2023-07-20T07:18:46;4.28;;;2.17;;
75050;SDS011;63628;47.656;11.310;2023-07-20T07:21:13;4.70;;;1.90;;
75050;SDS011;63628;47.656;11.310;2023-07-20T07:23:39;3.15;;;1.83;;
75050;SDS011;63628;47.656;11.310;2023-07-20T07:26:06;3.15;;;1.70;;
75050;SDS011;63628;47.656;11.310;2023-07-20T07:28:33;3.08;;;1.75;;
75050;SDS011;63628;47.656;11.310;2023-07-20T07:30:59;2.28;;;1.58;;
75050;SDS011;63628;47.656;11.310;2023-07-20T07:33:28;4.15;;;2.03;;
75050;SDS011;63628;47.656;11.310;2023-07-20T07:35:55;4.50;;;1.83;;
75050;SDS011;63628;47.656;11.310;2023-07-20T07:38:21;6.32;;;1.70;;
75050;SDS011;63628;47.656;11.310;2023-07-20T07:41:08;1.67;;;1.42;;
75050;SDS011;63628;47.656;11.310;2023-07-20T07:43:35;3.63;;;1.65;;
75050;SDS011;63628;47.656;11.310;2023-07-20T07:46:02;3.33;;;1.73;;
75050;SDS011;63628;47.656;11.310;2023-07-20T07:48:30;6.00;;;2.00;;
75050;SDS011;63628;47.656;11.310;2023-07-20T07:50:56;3.30;;;1.90;;
75050;SDS011;63628;47.656;11.310;2023-07-20T07:53:23;2.95;;;2.00;;
75050;SDS011;63628;47.656;11.310;2023-07-20T07:55:52;5.00;;;1.92;;
75050;SDS011;63628;47.656;11.310;2023-07-20T07:58:19;4.40;;;1.88;;
75050;SDS011;63628;47.656;11.310;2023-07-20T08:00:45;3.05;;;1.67;;
75050;SDS011;63628;47.656;11.310;2023-07-20T08:03:14;4.28;;;1.83;;
75050;SDS011;63628;47.656;11.310;2023-07-20T08:05:42;2.17;;;1.80;;
75050;SDS011;63628;47.656;11.310;2023-07-20T08:08:09;4.70;;;2.00;;
75050;SDS011;63628;47.656;11.310;2023-07-20T08:10:36;5.28;;;2.30;;
75050;SDS011;63628;47.656;11.310;2023-07-20T08:13:02;3.78;;;2.17;;
75050;SDS011;63628;47.656;11.310;2023-07-20T08:15:29;2.80;;;1.88;;
75050;SDS011;63628;47.656;11.310;2023-07-20T08:17:56;6.57;;;1.83;;
75050;SDS011;63628;47.656;11.310;2023-07-20T08:20:23;6.22;;;1.65;;
75050;SDS011;63628;47.656;11.310;2023-07-20T08:22:55;5.20;;;1.85;;
75050;SDS011;63628;47.656;11.310;2023-07-20T08:25:22;4.32;;;1.80;;
75050;SDS011;63628;47.656;11.310;2023-07-20T08:27:49;2.78;;;1.73;;
75050;SDS011;63628;47.656;11.310;2023-07-20T08:30:16;3.85;;;1.65;;
75050;SDS011;63628;47.656;11.310;2023-07-20T08:32:42;4.13;;;1.58;;
75050;SDS011;63628;47.656;11.310;2023-07-20T08:35:09;4.00;;;1.88;;
75050;SDS011;63628;47.656;11.310;2023-07-20T08:37:36;5.60;;;1.85;;
75050;SDS011;63628;47.656;11.310;2023-07-20T08:40:05;3.08;;;1.63;;
75050;SDS011;63628;47.656;11.310;2023-07-20T08:42:35;3.00;;;1.67;;
75050;SDS011;63628;47.656;11.310;2023-07-20T08:45:04;2.83;;;1.67;;
75050;SDS011;63628;47.656;11.310;2023-07-20T08:47:34;3.35;;;1.73;;
75050;SDS011;63628;47.656;11.310;2023-07-20T08:50:02;3.10;;;1.67;;
75050;SDS011;63628;47.656;11.310;2023-07-20T08:52:33;5.90;;;1.77;;
75050;SDS011;63628;47.656;11.310;2023-07-20T08:55:00;2.70;;;1.73;;
75050;SDS011;63628;47.656;11.310;2023-07-20T08:59:59;7.80;;;1.83;;
75050;SDS011;63628;47.656;11.310;2023-07-20T09:02:28;2.70;;;1.60;;
75050;SDS011;63628;47.656;11.310;2023-07-20T09:04:55;2.20;;;1.50;;
75050;SDS011;63628;47.656;11.310;2023-07-20T09:07:22;3.78;;;2.00;;
75050;SDS011;63628;47.656;11.310;2023-07-20T09:09:50;1.95;;;1.55;;
75050;SDS011;63628;47.656;11.310;2023-07-20T09:12:17;4.40;;;1.95;;
75050;SDS011;63628;47.656;11.310;2023-07-20T09:14:45;3.33;;;1.50;;
75050;SDS011;63628;47.656;11.310;2023-07-20T09:17:15;1.50;;;1.38;;
75050;SDS011;63628;47.656;11.310;2023-07-20T09:19:46;3.47;;;1.65;;
75050;SDS011;63628;47.656;11.310;2023-07-20T09:22:13;2.55;;;1.60;;
75050;SDS011;63628;47.656;11.310;2023-07-20T09:24:40;2.80;;;1.80;;
75050;SDS011;63628;47.656;11.310;2023-07-20T09:27:09;5.43;;;1.75;;
75050;SDS011;63628;47.656;11.310;2023-07-20T09:29:48;6.22;;;1.90;;
75050;SDS011;63628;47.656;11.310;2023-07-20T09:32:17;3.85;;;1.80;;
75050;SDS011;63628;47.656;11.310;2023-07-20T09:34:49;7.07;;;2.33;;
75050;SDS011;63628;47.656;11.310;2023-07-20T09:37:19;2.78;;;1.70;;
75050;SDS011;63628;47.656;11.310;2023-07-20T09:39:46;4.72;;;2.05;;
75050;SDS011;63628;47.656;11.310;2023-07-20T09:42:16;2.13;;;1.60;;
75050;SDS011;63628;47.656;11.310;2023-07-20T09:44:47;3.20;;;1.80;;
75050;SDS011;63628;47.656;11.310;2023-07-20T09:47:21;4.90;;;1.80;;
75050;SDS011;63628;47.656;11.310;2023-07-20T09:49:57;4.57;;;2.00;;
75050;SDS011;63628;47.656;11.310;2023-07-20T09:52:29;2.63;;;1.58;;
75050;SDS011;63628;47.656;11.310;2023-07-20T09:54:58;5.13;;;1.63;;
75050;SDS011;63628;47.656;11.310;2023-07-20T09:57:27;4.60;;;1.77;;
75050;SDS011;63628;47.656;11.310;2023-07-20T09:59:55;1.58;;;1.38;;
75050;SDS011;63628;47.656;11.310;2023-07-20T10:02:44;2.35;;;1.75;;
75050;SDS011;63628;47.656;11.310;2023-07-20T10:05:12;2.03;;;1.60;;
75050;SDS011;63628;47.656;11.310;2023-07-20T10:07:43;2.83;;;2.03;;
75050;SDS011;63628;47.656;11.310;2023-07-20T10:10:11;4.68;;;1.90;;
75050;SDS011;63628;47.656;11.310;2023-07-20T10:12:40;3.58;;;2.10;;
75050;SDS011;63628;47.656;11.310;2023-07-20T10:15:13;4.15;;;2.00;;
75050;SDS011;63628;47.656;11.310;2023-07-20T10:17:47;4.95;;;2.17;;
75050;SDS011;63628;47.656;11.310;2023-07-20T10:20:21;4.85;;;1.70;;
75050;SDS011;63628;47.656;11.310;2023-07-20T10:22:49;3.47;;;1.52;;
75050;SDS011;63628;47.656;11.310;2023-07-20T10:25:18;2.70;;;1.63;;
75050;SDS011;63628;47.656;11.310;2023-07-20T10:27:46;7.22;;;2.22;;
75050;SDS011;63628;47.656;11.310;2023-07-20T10:30:15;6.43;;;1.80;;
75050;SDS011;63628;47.656;11.310;2023-07-20T10:32:43;6.45;;;1.75;;
75050;SDS011;63628;47.656;11.310;2023-07-20T10:35:12;5.55;;;2.00;;
75050;SDS011;63628;47.656;11.310;2023-07-20T10:37:46;4.35;;;1.90;;
75050;SDS011;63628;47.656;11.310;2023-07-20T10:40:29;5.00;;;1.75;;
75050;SDS011;63628;47.656;11.310;2023-07-20T10:42:58;2.60;;;1.90;;
75050;SDS011;63628;47.656;11.310;2023-07-20T10:45:39;7.00;;;2.20;;
75050;SDS011;63628;47.656;11.310;2023-07-20T10:48:12;4.20;;;1.58;;
75050;SDS011;63628;47.656;11.310;2023-07-20T10:50:41;2.65;;;1.73;;
75050;SDS011;63628;47.656;11.310;2023-07-20T10:53:13;2.95;;;1.60;;
75050;SDS011;63628;47.656;11.310;2023-07-20T10:55:41;5.68;;;1.98;;
75050;SDS011;63628;47.656;11.310;2023-07-20T10:58:09;3.50;;;2.10;;
75050;SDS011;63628;47.656;11.310;2023-07-20T11:00:38;2.37;;;1.80;;
75050;SDS011;63628;47.656;11.310;2023-07-20T11:03:29;4.63;;;1.77;;
75050;SDS011;63628;47.656;11.310;2023-07-20T11:09:07;3.42;;;2.08;;
75050;SDS011;63628;47.656;11.310;2023-07-20T11:11:38;3.00;;;1.80;;
75050;SDS011;63628;47.656;11.310;2023-07-20T11:14:06;3.92;;;1.63;;
75050;SDS011;63628;47.656;11.310;2023-07-20T11:16:36;9.02;;;2.17;;
75050;SDS011;63628;47.656;11.310;2023-07-20T11:19:05;8.45;;;2.08;;
75050;SDS011;63628;47.656;11.310;2023-07-20T11:21:36;3.72;;;1.60;;
75050;SDS011;63628;47.656;11.310;2023-07-20T11:24:17;4.35;;;1.98;;
75050;SDS011;63628;47.656;11.310;2023-07-20T11:26:44;5.55;;;1.90;;
75050;SDS011;63628;47.656;11.310;2023-07-20T11:29:12;4.95;;;2.13;;
75050;SDS011;63628;47.656;11.310;2023-07-20T11:31:58;3.00;;;1.80;;
75050;SDS011;63628;47.656;11.310;2023-07-20T11:34:25;5.50;;;2.17;;
75050;SDS011;63628;47.656;11.310;2023-07-20T11:36:51;5.82;;;1.63;;
75050;SDS011;63628;47.656;11.310;2023-07-20T11:39:22;5.68;;;2.05;;
75050;SDS011;63628;47.656;11.310;2023-07-20T11:41:51;5.57;;;1.80;;
75050;SDS011;63628;47.656;11.310;2023-07-20T11:44:19;7.17;;;2.87;;
75050;SDS011;63628;47.656;11.310;2023-07-20T11:47:00;3.08;;;2.17;;
75050;SDS011;63628;47.656;11.310;2023-07-20T11:49:30;2.25;;;1.80;;
75050;SDS011;63628;47.656;11.310;2023-07-20T11:52:01;2.97;;;1.55;;
75050;SDS011;63628;47.656;11.310;2023-07-20T11:54:28;5.05;;;2.22;;
75050;SDS011;63628;47.656;11.310;2023-07-20T11:56:55;2.60;;;1.60;;
75050;SDS011;63628;47.656;11.310;2023-07-20T11:59:22;5.05;;;1.92;;
75050;SDS011;63628;47.656;11.310;2023-07-20T12:01:49;3.38;;;1.80;;
75050;SDS011;63628;47.656;11.310;2023-07-20T12:04:17;4.50;;;1.95;;
75050;SDS011;63628;47.656;11.310;2023-07-20T12:06:44;4.85;;;2.00;;
75050;SDS011;63628;47.656;11.310;2023-07-20T12:09:13;7.88;;;2.30;;
75050;SDS011;63628;47.656;11.310;2023-07-20T12:11:40;2.47;;;1.55;;
75050;SDS011;63628;47.656;11.310;2023-07-20T12:14:09;2.40;;;1.80;;
75050;SDS011;63628;47.656;11.310;2023-07-20T12:16:43;3.85;;;1.85;;
75050;SDS011;63628;47.656;11.310;2023-07-20T12:19:11;3.50;;;2.42;;
75050;SDS011;63628;47.656;11.310;2023-07-20T12:21:40;7.22;;;1.80;;
75050;SDS011;63628;47.656;11.310;2023-07-20T12:24:08;3.58;;;1.77;;
75050;SDS011;63628;47.656;11.310;2023-07-20T12:26:37;2.60;;;1.60;;
75050;SDS011;63628;47.656;11.310;2023-07-20T12:29:03;6.47;;;2.15;;
75050;SDS011;63628;47.656;11.310;2023-07-20T12:31:30;2.53;;;1.85;;
75050;SDS011;63628;47.656;11.310;2023-07-20T12:34:02;5.70;;;2.05;;
75050;SDS011;63628;47.656;11.310;2023-07-20T12:36:28;5.25;;;2.00;;
75050;SDS011;63628;47.656;11.310;2023-07-20T12:38:56;4.80;;;2.08;;
75050;SDS011;63628;47.656;11.310;2023-07-20T12:43:51;1.83;;;1.73;;
75050;SDS011;63628;47.656;11.310;2023-07-20T12:46:19;2.22;;;1.75;;
75050;SDS011;63628;47.656;11.310;2023-07-20T12:48:45;2.00;;;1.60;;
75050;SDS011;63628;47.656;11.310;2023-07-20T12:51:15;4.13;;;2.05;;
75050;SDS011;63628;47.656;11.310;2023-07-20T12:53:42;2.78;;;1.90;;
75050;SDS011;63628;47.656;11.310;2023-07-20T12:56:11;6.60;;;2.00;;
75050;SDS011;63628;47.656;11.310;2023-07-20T12:58:41;4.35;;;2.10;;
75050;SDS011;63628;47.656;11.310;2023-07-20T13:01:08;4.88;;;2.45;;
75050;SDS011;63628;47.656;11.310;2023-07-20T13:03:34;3.13;;;2.10;;
75050;SDS011;63628;47.656;11.310;2023-07-20T13:06:21;4.50;;;3.33;;
75050;SDS011;63628;47.656;11.310;2023-07-20T13:08:50;5.75;;;2.42;;
75050;SDS011;63628;47.656;11.310;2023-07-20T13:11:23;5.45;;;2.28;;
75050;SDS011;63628;47.656;11.310;2023-07-20T13:13:50;4.30;;;2.22;;
75050;SDS011;63628;47.656;11.310;2023-07-20T13:16:17;3.95;;;2.17;;
75050;SDS011;63628;47.656;11.310;2023-07-20T13:18:43;4.53;;;1.90;;
75050;SDS011;63628;47.656;11.310;2023-07-20T13:21:10;6.30;;;1.90;;
75050;SDS011;63628;47.656;11.310;2023-07-20T13:23:38;3.43;;;2.13;;
75050;SDS011;63628;47.656;11.310;2023-07-20T13:26:05;2.75;;;2.00;;
75050;SDS011;63628;47.656;11.310;2023-07-20T13:28:33;2.20;;;1.77;;
75050;SDS011;63628;47.656;11.310;2023-07-20T13:31:00;2.13;;;1.70;;
75050;SDS011;63628;47.656;11.310;2023-07-20T13:33:26;2.17;;;1.80;;
75050;SDS011;63628;47.656;11.310;2023-07-20T13:35:54;3.50;;;2.20;;
75050;SDS011;63628;47.656;11.310;2023-07-20T13:38:21;6.25;;;2.30;;
75050;SDS011;63628;47.656;11.310;2023-07-20T13:40:48;4.88;;;1.98;;
75050;SDS011;63628;47.656;11.310;2023-07-20T13:43:15;7.13;;;2.65;;
75050;SDS011;63628;47.656;11.310;2023-07-20T13:45:43;3.03;;;2.00;;
75050;SDS011;63628;47.656;11.310;2023-07-20T13:48:10;3.58;;;2.10;;
75050;SDS011;63628;47.656;11.310;2023-07-20T13:50:36;4.50;;;2.28;;
75050;SDS011;63628;47.656;11.310;2023-07-20T13:53:08;4.53;;;2.53;;
75050;SDS011;63628;47.656;11.310;2023-07-20T13:55:37;4.95;;;1.80;;
75050;SDS011;63628;47.656;11.310;2023-07-20T13:58:07;5.78;;;2.20;;
75050;SDS011;63628;47.656;11.310;2023-07-20T14:00:38;4.70;;;2.13;;
75050;SDS011;63628;47.656;11.310;2023-07-20T14:03:06;3.65;;;1.88;;
75050;SDS011;63628;47.656;11.310;2023-07-20T14:05:36;2.33;;;1.90;;
75050;SDS011;63628;47.656;11.310;2023-07-20T14:08:05;2.88;;;1.92;;
75050;SDS011;63628;47.656;11.310;2023-07-20T14:10:32;3.28;;;2.10;;
75050;SDS011;63628;47.656;11.310;2023-07-20T14:12:59;4.57;;;1.92;;
75050;SDS011;63628;47.656;11.310;2023-07-20T14:15:26;2.88;;;1.95;;
75050;SDS011;63628;47.656;11.310;2023-07-20T14:17:52;4.63;;;1.83;;
75050;SDS011;63628;47.656;11.310;2023-07-20T14:20:21;2.33;;;1.95;;
75050;SDS011;63628;47.656;11.310;2023-07-20T14:22:48;8.85;;;2.97;;
75050;SDS011;63628;47.656;11.310;2023-07-20T14:25:17;3.95;;;1.80;;
75050;SDS011;63628;47.656;11.310;2023-07-20T14:27:45;5.43;;;2.70;;
75050;SDS011;63628;47.656;11.310;2023-07-20T14:30:12;2.83;;;1.90;;
75050;SDS011;63628;47.656;11.310;2023-07-20T14:32:40;3.42;;;2.10;;
75050;SDS011;63628;47.656;11.310;2023-07-20T14:35:07;5.53;;;2.10;;
75050;SDS011;63628;47.656;11.310;2023-07-20T14:37:37;3.75;;;2.05;;
75050;SDS011;63628;47.656;11.310;2023-07-20T14:40:04;2.38;;;2.13;;
75050;SDS011;63628;47.656;11.310;2023-07-20T14:42:34;3.60;;;2.10;;
75050;SDS011;63628;47.656;11.310;2023-07-20T14:45:01;2.75;;;1.75;;
75050;SDS011;63628;47.656;11.310;2023-07-20T14:47:29;5.82;;;2.00;;
75050;SDS011;63628;47.656;11.310;2023-07-20T14:49:58;4.03;;;2.65;;
75050;SDS011;63628;47.656;11.310;2023-07-20T14:52:25;3.03;;;2.03;;
75050;SDS011;63628;47.656;11.310;2023-07-20T14:54:56;2.50;;;1.55;;